sensor_id;sensor_type;location;lat;lon;timestamp;pressure;altitude;pressure_sealevel;temperature;humidity
50682;BME280;36779;52.168;20.878;2023-02-18T00:01:09;99430.70;;;6.97;79.57
50682;BME280;36779;52.168;20.878;2023-02-18T00:03:39;99436.45;;;6.89;79.44
50682;BME280;36779;52.168;20.878;2023-02-18T00:06:14;99439.93;;;6.79;79.28
50682;BME280;36779;52.168;20.878;2023-02-18T00:08:46;99440.27;;;6.69;79.23
50682;BME280;36779;52.168;20.878;2023-02-18T00:11:16;99446.75;;;6.61;79.13
50682;BME280;36779;52.168;20.878;2023-02-18T00:13:54;99449.06;;;6.54;79.13
50682;BME280;36779;52.168;20.878;2023-02-18T00:16:26;99449.05;;;6.48;79.26
50682;BME280;36779;52.168;20.878;2023-02-18T00:18:58;99454.35;;;6.43;79.24
50682;BME280;36779;52.168;20.878;2023-02-18T00:21:28;99456.73;;;6.38;79.30
50682;BME280;36779;52.168;20.878;2023-02-18T00:23:56;99451.10;;;6.33;79.15
50682;BME280;36779;52.168;20.878;2023-02-18T00:26:26;99448.39;;;6.28;79.15
50682;BME280;36779;52.168;20.878;2023-02-18T00:28:59;99455.67;;;6.24;79.12
50682;BME280;36779;52.168;20.878;2023-02-18T00:31:32;99452.19;;;6.22;79.08
50682;BME280;36779;52.168;20.878;2023-02-18T00:34:03;99464.17;;;6.17;79.04
50682;BME280;36779;52.168;20.878;2023-02-18T00:36:36;99461.84;;;6.14;79.22
50682;BME280;36779;52.168;20.878;2023-02-18T00:39:11;99464.72;;;6.13;79.13
50682;BME280;36779;52.168;20.878;2023-02-18T00:41:40;99462.40;;;6.14;79.09
50682;BME280;36779;52.168;20.878;2023-02-18T00:44:17;99459.33;;;6.15;78.98
50682;BME280;36779;52.168;20.878;2023-02-18T00:46:46;99464.96;;;6.13;79.00
50682;BME280;36779;52.168;20.878;2023-02-18T00:49:19;99470.66;;;6.07;78.85
50682;BME280;36779;52.168;20.878;2023-02-18T00:51:48;99459.03;;;6.04;78.95
50682;BME280;36779;52.168;20.878;2023-02-18T00:54:20;99459.30;;;6.04;78.94
50682;BME280;36779;52.168;20.878;2023-02-18T00:56:52;99457.83;;;6.03;78.84
50682;BME280;36779;52.168;20.878;2023-02-18T00:59:20;99463.38;;;6.01;78.89
50682;BME280;36779;52.168;20.878;2023-02-18T01:01:51;99468.55;;;6.00;78.88
50682;BME280;36779;52.168;20.878;2023-02-18T01:04:21;99470.06;;;5.99;78.86
50682;BME280;36779;52.168;20.878;2023-02-18T01:06:51;99469.48;;;5.96;78.66
50682;BME280;36779;52.168;20.878;2023-02-18T01:09:20;99471.02;;;5.91;78.60
50682;BME280;36779;52.168;20.878;2023-02-18T01:11:52;99481.19;;;5.86;78.70
50682;BME280;36779;52.168;20.878;2023-02-18T01:14:21;99479.56;;;5.83;78.65
50682;BME280;36779;52.168;20.878;2023-02-18T01:16:51;99480.52;;;5.82;78.60
50682;BME280;36779;52.168;20.878;2023-02-18T01:19:20;99475.46;;;5.84;78.66
50682;BME280;36779;52.168;20.878;2023-02-18T01:21:52;99478.98;;;5.87;78.81
50682;BME280;36779;52.168;20.878;2023-02-18T01:24:24;99479.24;;;5.90;78.76
50682;BME280;36779;52.168;20.878;2023-02-18T01:26:57;99478.42;;;5.91;78.65
50682;BME280;36779;52.168;20.878;2023-02-18T01:29:33;99472.66;;;5.90;78.66
50682;BME280;36779;52.168;20.878;2023-02-18T01:32:02;99472.27;;;5.89;78.63
50682;BME280;36779;52.168;20.878;2023-02-18T01:34:32;99466.27;;;5.87;78.53
50682;BME280;36779;52.168;20.878;2023-02-18T01:37:01;99468.11;;;5.88;78.61
50682;BME280;36779;52.168;20.878;2023-02-18T01:39:30;99466.07;;;5.89;78.59
50682;BME280;36779;52.168;20.878;2023-02-18T01:42:00;99467.29;;;5.89;78.57
50682;BME280;36779;52.168;20.878;2023-02-18T01:44:33;99462.23;;;5.89;78.51
50682;BME280;36779;52.168;20.878;2023-02-18T01:47:02;99463.59;;;5.88;78.39
50682;BME280;36779;52.168;20.878;2023-02-18T01:49:34;99462.33;;;5.86;78.46
50682;BME280;36779;52.168;20.878;2023-02-18T01:52:07;99465.90;;;5.84;78.39
50682;BME280;36779;52.168;20.878;2023-02-18T01:54:38;99468.20;;;5.82;78.39
50682;BME280;36779;52.168;20.878;2023-02-18T01:57:09;99461.75;;;5.81;78.31
50682;BME280;36779;52.168;20.878;2023-02-18T01:59:42;99455.64;;;5.81;78.22
50682;BME280;36779;52.168;20.878;2023-02-18T02:02:17;99463.23;;;5.82;78.38
50682;BME280;36779;52.168;20.878;2023-02-18T02:04:51;99464.78;;;5.84;78.32
50682;BME280;36779;52.168;20.878;2023-02-18T02:07:22;99470.60;;;5.85;78.35
50682;BME280;36779;52.168;20.878;2023-02-18T02:09:57;99470.76;;;5.85;78.34
50682;BME280;36779;52.168;20.878;2023-02-18T02:12:43;99468.61;;;5.83;78.23
50682;BME280;36779;52.168;20.878;2023-02-18T02:15:29;99474.11;;;5.81;78.22
50682;BME280;36779;52.168;20.878;2023-02-18T02:18:19;99473.95;;;5.78;78.15
50682;BME280;36779;52.168;20.878;2023-02-18T02:21:38;99479.48;;;5.75;78.09
50682;BME280;36779;52.168;20.878;2023-02-18T02:27:24;99468.17;;;5.74;78.05
50682;BME280;36779;52.168;20.878;2023-02-18T02:30:09;99470.40;;;5.73;78.05
50682;BME280;36779;52.168;20.878;2023-02-18T02:33:06;99469.92;;;5.72;77.97
50682;BME280;36779;52.168;20.878;2023-02-18T02:35:45;99469.33;;;5.69;77.98
50682;BME280;36779;52.168;20.878;2023-02-18T02:38:28;99468.56;;;5.68;77.99
50682;BME280;36779;52.168;20.878;2023-02-18T02:41:11;99469.15;;;5.68;77.86
50682;BME280;36779;52.168;20.878;2023-02-18T02:43:52;99470.88;;;5.66;77.84
50682;BME280;36779;52.168;20.878;2023-02-18T02:46:29;99468.54;;;5.65;77.85
50682;BME280;36779;52.168;20.878;2023-02-18T02:49:09;99476.61;;;5.62;77.80
50682;BME280;36779;52.168;20.878;2023-02-18T02:51:41;99476.35;;;5.59;77.86
50682;BME280;36779;52.168;20.878;2023-02-18T02:54:15;99477.40;;;5.55;77.69
50682;BME280;36779;52.168;20.878;2023-02-18T02:56:44;99477.88;;;5.53;77.73
50682;BME280;36779;52.168;20.878;2023-02-18T02:59:17;99476.73;;;5.50;77.74
50682;BME280;36779;52.168;20.878;2023-02-18T03:02:05;99477.01;;;5.49;77.76
50682;BME280;36779;52.168;20.878;2023-02-18T03:05:00;99472.09;;;5.47;77.72
50682;BME280;36779;52.168;20.878;2023-02-18T03:07:53;99477.70;;;5.43;77.72
50682;BME280;36779;52.168;20.878;2023-02-18T03:10:39;99484.61;;;5.39;77.67
50682;BME280;36779;52.168;20.878;2023-02-18T03:13:17;99495.30;;;5.36;77.68
50682;BME280;36779;52.168;20.878;2023-02-18T03:15:55;99489.90;;;5.34;77.56
50682;BME280;36779;52.168;20.878;2023-02-18T03:18:35;99494.41;;;5.33;77.55
50682;BME280;36779;52.168;20.878;2023-02-18T03:21:11;99493.88;;;5.31;77.53
50682;BME280;36779;52.168;20.878;2023-02-18T03:23:48;99496.55;;;5.29;77.51
50682;BME280;36779;52.168;20.878;2023-02-18T03:26:24;99496.88;;;5.24;77.55
50682;BME280;36779;52.168;20.878;2023-02-18T03:28:57;99499.37;;;5.20;77.50
50682;BME280;36779;52.168;20.878;2023-02-18T03:31:33;99502.39;;;5.16;77.42
50682;BME280;36779;52.168;20.878;2023-02-18T03:34:08;99499.44;;;5.12;77.41
50682;BME280;36779;52.168;20.878;2023-02-18T03:36:40;99499.73;;;5.11;77.47
50682;BME280;36779;52.168;20.878;2023-02-18T03:39:16;99501.23;;;5.10;77.33
50682;BME280;36779;52.168;20.878;2023-02-18T03:41:46;99503.61;;;5.09;77.49
50682;BME280;36779;52.168;20.878;2023-02-18T03:44:15;99507.10;;;5.06;77.36
50682;BME280;36779;52.168;20.878;2023-02-18T03:46:45;99513.52;;;5.02;77.39
50682;BME280;36779;52.168;20.878;2023-02-18T03:49:18;99524.80;;;4.96;77.26
50682;BME280;36779;52.168;20.878;2023-02-18T03:51:48;99533.59;;;4.92;77.31
50682;BME280;36779;52.168;20.878;2023-02-18T03:54:20;99532.44;;;4.89;77.37
50682;BME280;36779;52.168;20.878;2023-02-18T03:56:50;99529.10;;;4.89;77.28
50682;BME280;36779;52.168;20.878;2023-02-18T03:59:20;99529.30;;;4.89;77.42
50682;BME280;36779;52.168;20.878;2023-02-18T04:01:52;99536.73;;;4.88;77.26
50682;BME280;36779;52.168;20.878;2023-02-18T04:04:21;99541.48;;;4.85;77.35
50682;BME280;36779;52.168;20.878;2023-02-18T04:06:52;99547.73;;;4.82;77.18
50682;BME280;36779;52.168;20.878;2023-02-18T04:09:21;99548.80;;;4.80;77.23
50682;BME280;36779;52.168;20.878;2023-02-18T04:11:53;99549.27;;;4.81;77.39
50682;BME280;36779;52.168;20.878;2023-02-18T04:14:24;99548.39;;;4.83;77.27
50682;BME280;36779;52.168;20.878;2023-02-18T04:16:53;99549.59;;;4.83;77.30
50682;BME280;36779;52.168;20.878;2023-02-18T04:19:22;99557.49;;;4.82;77.22
50682;BME280;36779;52.168;20.878;2023-02-18T04:21:54;99559.73;;;4.80;77.22
50682;BME280;36779;52.168;20.878;2023-02-18T04:24:23;99554.89;;;4.79;77.30
50682;BME280;36779;52.168;20.878;2023-02-18T04:26:56;99559.34;;;4.77;77.22
50682;BME280;36779;52.168;20.878;2023-02-18T04:29:25;99559.26;;;4.76;77.27
50682;BME280;36779;52.168;20.878;2023-02-18T04:31:54;99564.91;;;4.74;77.06
50682;BME280;36779;52.168;20.878;2023-02-18T04:34:25;99564.16;;;4.74;77.18
50682;BME280;36779;52.168;20.878;2023-02-18T04:36:55;99555.30;;;4.73;77.09
50682;BME280;36779;52.168;20.878;2023-02-18T04:39:28;99557.67;;;4.70;77.06
50682;BME280;36779;52.168;20.878;2023-02-18T04:41:57;99558.20;;;4.68;77.13
50682;BME280;36779;52.168;20.878;2023-02-18T04:44:27;99557.48;;;4.66;77.10
50682;BME280;36779;52.168;20.878;2023-02-18T04:46:59;99557.55;;;4.64;77.14
50682;BME280;36779;52.168;20.878;2023-02-18T04:49:28;99557.52;;;4.62;77.16
50682;BME280;36779;52.168;20.878;2023-02-18T04:52:01;99555.48;;;4.60;77.11
50682;BME280;36779;52.168;20.878;2023-02-18T04:54:30;99557.67;;;4.59;77.07
50682;BME280;36779;52.168;20.878;2023-02-18T04:56:59;99552.70;;;4.59;77.05
50682;BME280;36779;52.168;20.878;2023-02-18T04:59:31;99554.27;;;4.60;76.90
50682;BME280;36779;52.168;20.878;2023-02-18T05:01:59;99556.35;;;4.58;76.98
50682;BME280;36779;52.168;20.878;2023-02-18T05:04:28;99559.11;;;4.57;76.95
50682;BME280;36779;52.168;20.878;2023-02-18T05:07:01;99563.67;;;4.53;77.02
50682;BME280;36779;52.168;20.878;2023-02-18T05:09:30;99566.52;;;4.49;76.96
50682;BME280;36779;52.168;20.878;2023-02-18T05:12:01;99557.75;;;4.45;76.95
50682;BME280;36779;52.168;20.878;2023-02-18T05:14:30;99557.17;;;4.44;76.93
50682;BME280;36779;52.168;20.878;2023-02-18T05:16:59;99561.43;;;4.43;76.99
50682;BME280;36779;52.168;20.878;2023-02-18T05:19:28;99555.33;;;4.42;76.94
50682;BME280;36779;52.168;20.878;2023-02-18T05:21:59;99561.23;;;4.43;77.02
50682;BME280;36779;52.168;20.878;2023-02-18T05:24:32;99569.52;;;4.43;76.90
50682;BME280;36779;52.168;20.878;2023-02-18T05:27:01;99565.23;;;4.44;76.93
50682;BME280;36779;52.168;20.878;2023-02-18T05:29:30;99561.39;;;4.46;76.97
50682;BME280;36779;52.168;20.878;2023-02-18T05:31:59;99568.60;;;4.45;77.10
50682;BME280;36779;52.168;20.878;2023-02-18T05:34:28;99576.50;;;4.46;77.04
50682;BME280;36779;52.168;20.878;2023-02-18T05:36:59;99576.11;;;4.46;76.88
50682;BME280;36779;52.168;20.878;2023-02-18T05:39:30;99573.45;;;4.46;76.85
50682;BME280;36779;52.168;20.878;2023-02-18T05:42:01;99579.16;;;4.47;76.86
50682;BME280;36779;52.168;20.878;2023-02-18T05:44:30;99580.83;;;4.48;76.94
50682;BME280;36779;52.168;20.878;2023-02-18T05:47:01;99582.44;;;4.50;76.92
50682;BME280;36779;52.168;20.878;2023-02-18T05:49:32;99588.89;;;4.51;76.92
50682;BME280;36779;52.168;20.878;2023-02-18T05:52:02;99585.33;;;4.49;76.88
50682;BME280;36779;52.168;20.878;2023-02-18T05:54:32;99586.64;;;4.46;76.87
50682;BME280;36779;52.168;20.878;2023-02-18T05:57:04;99593.90;;;4.46;76.83
50682;BME280;36779;52.168;20.878;2023-02-18T05:59:36;99593.81;;;4.47;76.81
50682;BME280;36779;52.168;20.878;2023-02-18T06:02:05;99598.15;;;4.49;76.78
50682;BME280;36779;52.168;20.878;2023-02-18T06:04:33;99612.80;;;4.51;76.91
50682;BME280;36779;52.168;20.878;2023-02-18T06:07:03;99618.16;;;4.52;76.82
50682;BME280;36779;52.168;20.878;2023-02-18T06:09:37;99616.77;;;4.52;76.76
50682;BME280;36779;52.168;20.878;2023-02-18T06:12:07;99622.35;;;4.52;76.79
50682;BME280;36779;52.168;20.878;2023-02-18T06:14:36;99626.77;;;4.52;76.88
50682;BME280;36779;52.168;20.878;2023-02-18T06:17:05;99633.77;;;4.53;76.87
50682;BME280;36779;52.168;20.878;2023-02-18T06:19:41;99635.33;;;4.53;76.74
50682;BME280;36779;52.168;20.878;2023-02-18T06:22:12;99639.98;;;4.56;76.86
50682;BME280;36779;52.168;20.878;2023-02-18T06:24:44;99646.80;;;4.58;76.78
50682;BME280;36779;52.168;20.878;2023-02-18T06:27:13;99648.20;;;4.60;76.73
50682;BME280;36779;52.168;20.878;2023-02-18T06:29:42;99643.91;;;4.61;76.79
50682;BME280;36779;52.168;20.878;2023-02-18T06:32:12;99648.65;;;4.61;76.73
50682;BME280;36779;52.168;20.878;2023-02-18T06:34:41;99643.84;;;4.60;76.76
50682;BME280;36779;52.168;20.878;2023-02-18T06:37:11;99649.21;;;4.59;76.80
50682;BME280;36779;52.168;20.878;2023-02-18T06:39:39;99650.34;;;4.60;76.67
50682;BME280;36779;52.168;20.878;2023-02-18T06:42:11;99646.90;;;4.61;76.75
50682;BME280;36779;52.168;20.878;2023-02-18T06:44:43;99649.40;;;4.62;76.66
50682;BME280;36779;52.168;20.878;2023-02-18T06:47:12;99649.84;;;4.65;76.63
50682;BME280;36779;52.168;20.878;2023-02-18T06:49:45;99658.46;;;4.67;76.61
50682;BME280;36779;52.168;20.878;2023-02-18T06:52:22;99659.39;;;4.68;76.75
50682;BME280;36779;52.168;20.878;2023-02-18T06:54:52;99660.19;;;4.69;76.70
50682;BME280;36779;52.168;20.878;2023-02-18T06:57:21;99660.89;;;4.71;76.76
50682;BME280;36779;52.168;20.878;2023-02-18T06:59:52;99659.02;;;4.72;76.67
50682;BME280;36779;52.168;20.878;2023-02-18T07:02:21;99652.63;;;4.73;76.58
50682;BME280;36779;52.168;20.878;2023-02-18T07:04:57;99663.39;;;4.75;76.62
50682;BME280;36779;52.168;20.878;2023-02-18T07:07:30;99658.77;;;4.77;76.63
50682;BME280;36779;52.168;20.878;2023-02-18T07:09:59;99666.07;;;4.80;76.65
50682;BME280;36779;52.168;20.878;2023-02-18T07:12:35;99669.95;;;4.82;76.57
50682;BME280;36779;52.168;20.878;2023-02-18T07:15:05;99677.02;;;4.84;76.49
50682;BME280;36779;52.168;20.878;2023-02-18T07:17:34;99678.41;;;4.84;76.51
50682;BME280;36779;52.168;20.878;2023-02-18T07:20:04;99683.83;;;4.84;76.49
50682;BME280;36779;52.168;20.878;2023-02-18T07:22:33;99686.36;;;4.84;76.56
50682;BME280;36779;52.168;20.878;2023-02-18T07:25:02;99686.23;;;4.83;76.42
50682;BME280;36779;52.168;20.878;2023-02-18T07:27:32;99680.73;;;4.83;76.44
50682;BME280;36779;52.168;20.878;2023-02-18T07:30:01;99675.17;;;4.86;76.58
50682;BME280;36779;52.168;20.878;2023-02-18T07:32:30;99669.67;;;4.90;76.58
50682;BME280;36779;52.168;20.878;2023-02-18T07:34:59;99668.05;;;4.94;76.53
50682;BME280;36779;52.168;20.878;2023-02-18T07:37:32;99667.79;;;5.03;76.71
50682;BME280;36779;52.168;20.878;2023-02-18T07:40:00;99663.61;;;5.12;76.66
50682;BME280;36779;52.168;20.878;2023-02-18T07:42:30;99669.79;;;5.19;76.68
50682;BME280;36779;52.168;20.878;2023-02-18T07:45:00;99663.78;;;5.25;76.55
50682;BME280;36779;52.168;20.878;2023-02-18T07:47:30;99670.39;;;5.32;76.65
50682;BME280;36779;52.168;20.878;2023-02-18T07:49:59;99673.45;;;5.36;76.58
50682;BME280;36779;52.168;20.878;2023-02-18T07:52:28;99670.05;;;5.42;76.51
50682;BME280;36779;52.168;20.878;2023-02-18T07:54:57;99666.88;;;5.46;76.41
50682;BME280;36779;52.168;20.878;2023-02-18T07:57:26;99667.44;;;5.53;76.40
50682;BME280;36779;52.168;20.878;2023-02-18T08:00:00;99665.98;;;5.63;76.61
50682;BME280;36779;52.168;20.878;2023-02-18T08:02:32;99670.11;;;5.70;76.49
50682;BME280;36779;52.168;20.878;2023-02-18T08:05:01;99676.92;;;5.74;76.37
50682;BME280;36779;52.168;20.878;2023-02-18T08:07:30;99676.72;;;5.76;76.29
50682;BME280;36779;52.168;20.878;2023-02-18T08:09:59;99676.20;;;5.79;76.36
50682;BME280;36779;52.168;20.878;2023-02-18T08:12:28;99675.00;;;5.84;76.32
50682;BME280;36779;52.168;20.878;2023-02-18T08:14:59;99677.69;;;5.93;76.31
50682;BME280;36779;52.168;20.878;2023-02-18T08:17:30;99671.80;;;6.01;76.22
50682;BME280;36779;52.168;20.878;2023-02-18T08:19:59;99668.42;;;6.12;76.45
50682;BME280;36779;52.168;20.878;2023-02-18T08:22:28;99677.58;;;6.22;76.33
50682;BME280;36779;52.168;20.878;2023-02-18T08:24:57;99675.49;;;6.30;76.36
50682;BME280;36779;52.168;20.878;2023-02-18T08:27:27;99680.39;;;6.36;76.30
50682;BME280;36779;52.168;20.878;2023-02-18T08:29:56;99682.92;;;6.35;76.01
50682;BME280;36779;52.168;20.878;2023-02-18T08:32:27;99684.03;;;6.33;76.04
50682;BME280;36779;52.168;20.878;2023-02-18T08:34:56;99678.27;;;6.31;75.85
50682;BME280;36779;52.168;20.878;2023-02-18T08:37:26;99667.45;;;6.33;75.99
50682;BME280;36779;52.168;20.878;2023-02-18T08:39:56;99675.90;;;6.37;75.97
50682;BME280;36779;52.168;20.878;2023-02-18T08:42:25;99678.92;;;6.40;75.86
50682;BME280;36779;52.168;20.878;2023-02-18T08:44:54;99682.81;;;6.44;75.96
50682;BME280;36779;52.168;20.878;2023-02-18T08:47:23;99687.88;;;6.44;75.82
50682;BME280;36779;52.168;20.878;2023-02-18T08:50:11;99685.23;;;6.44;75.86
50682;BME280;36779;52.168;20.878;2023-02-18T08:52:40;99692.52;;;6.42;75.74
50682;BME280;36779;52.168;20.878;2023-02-18T08:55:09;99692.14;;;6.40;75.79
50682;BME280;36779;52.168;20.878;2023-02-18T08:57:38;99702.19;;;6.42;75.79
50682;BME280;36779;52.168;20.878;2023-02-18T09:00:09;99700.81;;;6.44;75.80
50682;BME280;36779;52.168;20.878;2023-02-18T09:02:37;99705.84;;;6.43;75.76
50682;BME280;36779;52.168;20.878;2023-02-18T09:05:07;99705.91;;;6.40;75.63
50682;BME280;36779;52.168;20.878;2023-02-18T09:07:37;99708.73;;;6.40;75.60
50682;BME280;36779;52.168;20.878;2023-02-18T09:10:07;99704.76;;;6.41;75.65
50682;BME280;36779;52.168;20.878;2023-02-18T09:12:36;99703.00;;;6.41;75.53
50682;BME280;36779;52.168;20.878;2023-02-18T09:15:08;99711.37;;;6.40;75.51
50682;BME280;36779;52.168;20.878;2023-02-18T09:17:37;99714.29;;;6.38;75.56
50682;BME280;36779;52.168;20.878;2023-02-18T09:20:08;99726.57;;;6.34;75.42
50682;BME280;36779;52.168;20.878;2023-02-18T09:22:38;99729.80;;;6.32;75.52
50682;BME280;36779;52.168;20.878;2023-02-18T09:25:07;99733.08;;;6.33;75.64
50682;BME280;36779;52.168;20.878;2023-02-18T09:27:36;99732.86;;;6.33;75.54
50682;BME280;36779;52.168;20.878;2023-02-18T09:30:07;99734.96;;;6.33;75.53
50682;BME280;36779;52.168;20.878;2023-02-18T09:32:36;99732.76;;;6.34;75.59
50682;BME280;36779;52.168;20.878;2023-02-18T09:35:06;99737.61;;;6.34;75.40
50682;BME280;36779;52.168;20.878;2023-02-18T09:37:35;99735.95;;;6.32;75.50
50682;BME280;36779;52.168;20.878;2023-02-18T09:40:09;99731.64;;;6.33;75.49
50682;BME280;36779;52.168;20.878;2023-02-18T09:42:51;99737.98;;;6.35;75.50
50682;BME280;36779;52.168;20.878;2023-02-18T09:45:23;99736.63;;;6.42;75.54
50682;BME280;36779;52.168;20.878;2023-02-18T09:47:53;99739.52;;;6.50;75.53
50682;BME280;36779;52.168;20.878;2023-02-18T09:50:25;99742.77;;;6.57;75.38
50682;BME280;36779;52.168;20.878;2023-02-18T09:52:58;99738.42;;;6.54;75.31
50682;BME280;36779;52.168;20.878;2023-02-18T09:55:31;99737.34;;;6.51;75.31
50682;BME280;36779;52.168;20.878;2023-02-18T09:58:04;99746.06;;;6.48;75.23
50682;BME280;36779;52.168;20.878;2023-02-18T10:00:37;99747.77;;;6.47;75.28
50682;BME280;36779;52.168;20.878;2023-02-18T10:03:11;99747.66;;;6.43;75.18
50682;BME280;36779;52.168;20.878;2023-02-18T10:05:49;99762.24;;;6.38;75.12
50682;BME280;36779;52.168;20.878;2023-02-18T10:08:21;99763.79;;;6.35;75.11
50682;BME280;36779;52.168;20.878;2023-02-18T10:10:52;99766.84;;;6.29;74.98
50682;BME280;36779;52.168;20.878;2023-02-18T10:13:23;99769.02;;;6.26;75.15
50682;BME280;36779;52.168;20.878;2023-02-18T10:15:54;99765.88;;;6.24;75.05
50682;BME280;36779;52.168;20.878;2023-02-18T10:18:27;99771.70;;;6.22;75.11
50682;BME280;36779;52.168;20.878;2023-02-18T10:21:04;99765.07;;;6.20;75.01
50682;BME280;36779;52.168;20.878;2023-02-18T10:23:37;99771.67;;;6.16;74.98
50682;BME280;36779;52.168;20.878;2023-02-18T10:26:09;99770.83;;;6.15;75.17
50682;BME280;36779;52.168;20.878;2023-02-18T10:28:40;99767.99;;;6.19;75.19
50682;BME280;36779;52.168;20.878;2023-02-18T10:31:12;99766.63;;;6.20;75.10
50682;BME280;36779;52.168;20.878;2023-02-18T10:33:46;99764.77;;;6.23;75.11
50682;BME280;36779;52.168;20.878;2023-02-18T10:36:26;99761.02;;;6.32;75.21
50682;BME280;36779;52.168;20.878;2023-02-18T10:39:28;99758.25;;;6.46;75.35
50682;BME280;36779;52.168;20.878;2023-02-18T10:42:09;99758.39;;;6.61;75.29
50682;BME280;36779;52.168;20.878;2023-02-18T10:44:50;99754.60;;;6.67;75.05
50682;BME280;36779;52.168;20.878;2023-02-18T10:47:34;99750.77;;;6.70;75.03
50682;BME280;36779;52.168;20.878;2023-02-18T10:50:12;99748.89;;;6.70;74.88
50682;BME280;36779;52.168;20.878;2023-02-18T10:52:49;99748.32;;;6.68;74.89
50682;BME280;36779;52.168;20.878;2023-02-18T10:55:35;99740.12;;;6.62;74.83
50682;BME280;36779;52.168;20.878;2023-02-18T10:58:27;99734.42;;;6.57;74.83
50682;BME280;36779;52.168;20.878;2023-02-18T11:00:58;99735.33;;;6.55;74.74
50682;BME280;36779;52.168;20.878;2023-02-18T11:03:42;99739.30;;;6.52;74.76
50682;BME280;36779;52.168;20.878;2023-02-18T11:06:21;99743.94;;;6.52;74.84
50682;BME280;36779;52.168;20.878;2023-02-18T11:08:54;99736.79;;;6.53;74.74
50682;BME280;36779;52.168;20.878;2023-02-18T11:11:29;99735.15;;;6.53;74.82
50682;BME280;36779;52.168;20.878;2023-02-18T11:14:02;99732.81;;;6.54;74.71
50682;BME280;36779;52.168;20.878;2023-02-18T11:16:42;99732.17;;;6.55;74.80
50682;BME280;36779;52.168;20.878;2023-02-18T11:19:32;99730.52;;;6.54;74.59
50682;BME280;36779;52.168;20.878;2023-02-18T11:22:11;99732.33;;;6.53;74.65
50682;BME280;36779;52.168;20.878;2023-02-18T11:24:43;99717.80;;;6.55;74.68
50682;BME280;36779;52.168;20.878;2023-02-18T11:27:23;99724.26;;;6.56;74.62
50682;BME280;36779;52.168;20.878;2023-02-18T11:29:57;99720.73;;;6.54;74.62
50682;BME280;36779;52.168;20.878;2023-02-18T11:32:30;99719.02;;;6.54;74.76
50682;BME280;36779;52.168;20.878;2023-02-18T11:35:03;99719.18;;;6.56;74.70
50682;BME280;36779;52.168;20.878;2023-02-18T11:37:35;99713.59;;;6.57;74.79
50682;BME280;36779;52.168;20.878;2023-02-18T11:40:23;99713.39;;;6.61;74.72
50682;BME280;36779;52.168;20.878;2023-02-18T11:43:03;99721.20;;;6.68;74.90
50682;BME280;36779;52.168;20.878;2023-02-18T11:45:34;99718.05;;;6.76;74.83
50682;BME280;36779;52.168;20.878;2023-02-18T11:48:14;99713.53;;;6.86;74.79
50682;BME280;36779;52.168;20.878;2023-02-18T11:50:44;99706.67;;;6.96;74.95
50682;BME280;36779;52.168;20.878;2023-02-18T11:53:32;99705.24;;;7.05;74.82
50682;BME280;36779;52.168;20.878;2023-02-18T11:56:03;99713.05;;;7.09;74.76
50682;BME280;36779;52.168;20.878;2023-02-18T11:58:38;99705.00;;;7.14;74.63
50682;BME280;36779;52.168;20.878;2023-02-18T12:01:13;99707.33;;;7.11;74.44
50682;BME280;36779;52.168;20.878;2023-02-18T12:03:47;99704.38;;;7.04;74.35
50682;BME280;36779;52.168;20.878;2023-02-18T12:06:26;99697.48;;;6.99;74.39
50682;BME280;36779;52.168;20.878;2023-02-18T12:08:59;99695.70;;;6.98;74.48
50682;BME280;36779;52.168;20.878;2023-02-18T12:11:35;99694.73;;;6.99;74.51
50682;BME280;36779;52.168;20.878;2023-02-18T12:14:13;99689.86;;;6.98;74.47
50682;BME280;36779;52.168;20.878;2023-02-18T12:17:08;99678.13;;;6.97;74.33
50682;BME280;36779;52.168;20.878;2023-02-18T12:22:43;99680.35;;;6.89;74.32
50682;BME280;36779;52.168;20.878;2023-02-18T12:25:30;99677.12;;;6.90;74.36
50682;BME280;36779;52.168;20.878;2023-02-18T12:31:30;99672.86;;;6.92;74.33
50682;BME280;36779;52.168;20.878;2023-02-18T12:34:17;99667.30;;;6.91;74.21
50682;BME280;36779;52.168;20.878;2023-02-18T12:37:00;99670.17;;;6.90;74.26
50682;BME280;36779;52.168;20.878;2023-02-18T12:39:48;99661.88;;;6.89;74.23
50682;BME280;36779;52.168;20.878;2023-02-18T12:42:39;99655.27;;;6.86;74.08
50682;BME280;36779;52.168;20.878;2023-02-18T12:45:27;99651.73;;;6.84;74.16
50682;BME280;36779;52.168;20.878;2023-02-18T12:48:21;99650.81;;;6.82;74.20
50682;BME280;36779;52.168;20.878;2023-02-18T12:51:09;99646.39;;;6.84;74.20
50682;BME280;36779;52.168;20.878;2023-02-18T12:53:52;99648.08;;;6.87;74.29
50682;BME280;36779;52.168;20.878;2023-02-18T12:56:43;99644.23;;;6.88;74.33
50682;BME280;36779;52.168;20.878;2023-02-18T12:59:32;99641.86;;;6.92;74.41
50682;BME280;36779;52.168;20.878;2023-02-18T13:02:23;99637.44;;;6.99;74.40
50682;BME280;36779;52.168;20.878;2023-02-18T13:05:04;99636.95;;;7.02;74.24
50682;BME280;36779;52.168;20.878;2023-02-18T13:07:46;99633.21;;;7.01;74.24
50682;BME280;36779;52.168;20.878;2023-02-18T13:10:40;99630.71;;;6.99;74.22
50682;BME280;36779;52.168;20.878;2023-02-18T13:13:16;99625.84;;;6.97;74.15
50682;BME280;36779;52.168;20.878;2023-02-18T13:15:48;99620.95;;;6.95;74.09
50682;BME280;36779;52.168;20.878;2023-02-18T13:18:28;99626.45;;;6.89;73.96
50682;BME280;36779;52.168;20.878;2023-02-18T13:21:02;99623.60;;;6.79;73.93
50682;BME280;36779;52.168;20.878;2023-02-18T13:23:37;99621.89;;;6.70;73.78
50682;BME280;36779;52.168;20.878;2023-02-18T13:26:12;99623.71;;;6.60;73.86
50682;BME280;36779;52.168;20.878;2023-02-18T13:28:45;99622.27;;;6.52;73.84
50682;BME280;36779;52.168;20.878;2023-02-18T13:31:30;99629.06;;;6.48;73.95
50682;BME280;36779;52.168;20.878;2023-02-18T13:34:07;99627.52;;;6.44;73.94
50682;BME280;36779;52.168;20.878;2023-02-18T13:36:53;99630.00;;;6.42;73.99
50682;BME280;36779;52.168;20.878;2023-02-18T13:39:26;99631.82;;;6.42;73.92
50682;BME280;36779;52.168;20.878;2023-02-18T13:42:18;99631.80;;;6.39;73.86
50682;BME280;36779;52.168;20.878;2023-02-18T13:45:21;99635.77;;;6.35;73.95